Time;durP1;ratioP1;P1;durP2;ratioP2;P2;SDS_P1;SDS_P2;PMS_P1;PMS_P2;Temp;Humidity;BMP_temperature;BMP_pressure;BME280_temperature;BME280_humidity;BME280_pressure;Samples;Min_cycle;Max_cycle;Signal;HPM_P1;HPM_P2
2021/06/28 00:01:10;;;;;;;14.47;10.17;;;18.10;1.00;;;;;;5028020;28;20187;-74
2021/06/28 00:03:37;;;;;;;11.60;10.40;;;18.10;1.00;;;;;;5031904;28;20441;-74
2021/06/28 00:06:04;;;;;;;13.70;9.87;;;18.20;1.00;;;;;;5040414;28;20564;-74
2021/06/28 00:08:31;;;;;;;11.53;10.20;;;18.20;99.90;;;;;;5036711;28;20914;-74
2021/06/28 00:10:57;;;;;;;11.90;10.70;;;18.10;1.00;;;;;;5032060;28;20460;-74
2021/06/28 00:13:23;;;;;;;13.47;10.03;;;18.00;2.50;;;;;;5026080;28;20451;-74
2021/06/28 00:15:49;;;;;;;11.90;10.70;;;18.00;99.90;;;;;;5034497;28;20524;-74
2021/06/28 00:18:16;;;;;;;10.97;9.80;;;18.00;1.00;;;;;;5033771;28;20885;-74
2021/06/28 00:20:43;;;;;;;11.63;10.43;;;18.10;99.90;;;;;;5040088;28;20227;-74
2021/06/28 00:23:10;;;;;;;14.43;10.90;;;18.10;99.90;;;;;;5036068;28;20984;-74
2021/06/28 00:25:37;;;;;;;11.43;9.67;;;18.10;1.00;;;;;;5035559;28;20445;-74
2021/06/28 00:28:04;;;;;;;13.43;11.13;;;18.20;1.00;;;;;;5025514;28;21258;-74
2021/06/28 00:30:31;;;;;;;12.77;11.50;;;18.20;1.00;;;;;;5028664;28;20888;-74
2021/06/28 00:32:58;;;;;;;14.30;10.00;;;18.20;1.00;;;;;;5037095;28;20787;-74
2021/06/28 00:35:25;;;;;;;13.50;10.67;;;18.10;99.90;;;;;;5030824;28;20500;-74
2021/06/28 00:37:50;;;;;;;13.93;10.00;;;18.10;1.00;;;;;;5039560;28;20453;-74
2021/06/28 00:40:17;;;;;;;10.87;9.80;;;18.10;99.90;;;;;;5033243;28;20477;-74
2021/06/28 00:42:43;;;;;;;13.83;9.93;;;18.10;1.00;;;;;;5039479;28;20527;-74
2021/06/28 00:45:27;;;;;;;12.50;11.20;;;18.10;51.50;;;;;;5022719;28;20527;-74
2021/06/28 00:47:55;;;;;;;11.87;10.53;;;18.10;1.00;;;;;;5040608;28;20469;-74
2021/06/28 00:50:24;;;;;;;11.50;10.17;;;18.00;1.00;;;;;;5031804;28;20605;-74
2021/06/28 00:52:54;;;;;;;12.63;11.27;;;18.00;99.90;;;;;;5029341;28;20445;-74
2021/06/28 00:55:19;;;;;;;11.93;10.80;;;18.00;99.90;;;;;;5031169;28;21065;-74
2021/06/28 00:57:45;;;;;;;12.43;10.83;;;18.00;99.90;;;;;;5026933;28;20468;-74
2021/06/28 01:00:12;;;;;;;11.77;10.40;;;18.00;40.40;;;;;;5029660;28;20210;-74
2021/06/28 01:02:38;;;;;;;14.37;12.03;;;18.10;14.60;;;;;;5027099;28;20178;-74
2021/06/28 01:05:08;;;;;;;14.60;11.00;;;18.00;1.00;;;;;;5027837;28;20449;-74
2021/06/28 01:07:34;;;;;;;15.30;11.50;;;18.10;1.00;;;;;;5032808;28;20531;-74
2021/06/28 01:10:00;;;;;;;11.30;10.10;;;18.10;1.00;;;;;;5029459;28;20600;-74
2021/06/28 01:12:25;;;;;;;11.67;10.20;;;18.20;1.00;;;;;;5028330;28;20294;-74
2021/06/28 01:14:51;;;;;;;12.40;11.10;;;18.10;99.90;;;;;;5023787;28;20302;-74
2021/06/28 01:17:17;;;;;;;11.47;10.37;;;18.10;99.90;;;;;;5030761;28;20179;-74
2021/06/28 01:19:52;;;;;;;11.33;10.10;;;18.10;99.90;;;;;;5036720;28;20457;-74
2021/06/28 01:22:24;;;;;;;16.13;11.20;;;18.20;99.90;;;;;;5036875;28;20719;-74
2021/06/28 01:24:50;;;;;;;11.80;10.70;;;18.10;99.90;;;;;;5039486;28;20502;-74
2021/06/28 01:27:16;;;;;;;11.77;10.57;;;18.10;99.90;;;;;;5030044;28;20743;-74
2021/06/28 01:29:42;;;;;;;18.30;11.53;;;18.10;1.00;;;;;;5029921;28;21217;-74
2021/06/28 01:32:08;;;;;;;13.97;11.50;;;18.00;39.60;;;;;;5031309;28;20198;-74
2021/06/28 01:34:33;;;;;;;15.60;11.03;;;18.00;99.90;;;;;;5034643;28;20274;-74
2021/06/28 01:37:20;;;;;;;18.73;11.47;;;18.00;99.90;;;;;;5035069;28;20222;-74
2021/06/28 01:39:50;;;;;;;13.67;11.77;;;18.10;45.40;;;;;;5025431;28;20214;-74
2021/06/28 01:42:16;;;;;;;14.77;11.57;;;18.10;1.00;;;;;;5026815;28;20446;-74
2021/06/28 01:44:42;;;;;;;13.90;11.57;;;18.00;1.00;;;;;;5026568;28;20479;-74
2021/06/28 01:47:07;;;;;;;13.43;11.70;;;18.00;1.00;;;;;;5027987;28;20183;-74
2021/06/28 01:49:33;;;;;;;13.67;11.57;;;18.00;1.00;;;;;;5036459;28;20190;-73
2021/06/28 01:51:59;;;;;;;13.90;11.23;;;18.00;1.00;;;;;;5040938;28;20644;-73
2021/06/28 01:54:28;;;;;;;17.43;12.20;;;18.00;1.00;;;;;;5032813;28;20194;-73
2021/06/28 01:56:54;;;;;;;12.40;11.10;;;18.00;99.90;;;;;;5018041;28;20752;-74
2021/06/28 01:59:24;;;;;;;13.00;11.60;;;18.00;1.00;;;;;;5022847;28;20571;-73
2021/06/28 02:01:50;;;;;;;15.00;11.37;;;18.00;1.00;;;;;;5019386;28;20183;-73
2021/06/28 02:04:19;;;;;;;15.47;12.27;;;17.90;1.00;;;;;;5024009;28;20838;-74
2021/06/28 02:06:45;;;;;;;12.30;10.87;;;17.90;1.00;;;;;;5029028;28;20318;-74
2021/06/28 02:09:10;;;;;;;14.53;12.23;;;17.90;99.90;;;;;;5030388;28;20680;-74
2021/06/28 02:11:36;;;;;;;15.40;12.17;;;17.90;1.00;;;;;;5027314;28;20532;-74
2021/06/28 02:14:02;;;;;;;13.30;11.80;;;17.80;1.00;;;;;;5028035;28;20183;-74
2021/06/28 02:16:27;;;;;;;14.30;12.80;;;17.90;58.60;;;;;;5032967;28;20637;-74
2021/06/28 02:18:53;;;;;;;16.80;12.40;;;17.90;1.00;;;;;;5027925;28;20260;-74
2021/06/28 02:21:18;;;;;;;14.03;12.17;;;17.90;99.90;;;;;;5032712;28;20248;-74
2021/06/28 02:23:45;;;;;;;18.43;12.63;;;17.70;1.00;;;;;;5034474;28;20187;-73
2021/06/28 02:26:13;;;;;;;13.17;11.87;;;17.70;29.10;;;;;;5026331;28;20180;-74
2021/06/28 02:28:43;;;;;;;15.27;11.60;;;17.70;99.90;;;;;;5028860;28;20464;-74
2021/06/28 02:31:11;;;;;;;14.00;12.60;;;17.70;99.90;;;;;;5029124;28;20444;-73
2021/06/28 02:33:38;;;;;;;13.70;12.20;;;17.80;99.90;;;;;;5033566;28;20889;-74
2021/06/28 02:36:04;;;;;;;14.73;12.03;;;17.80;1.00;;;;;;5027914;28;21555;-74
2021/06/28 02:38:30;;;;;;;14.23;11.43;;;17.90;99.90;;;;;;5028387;28;20970;-74
2021/06/28 02:40:56;;;;;;;13.40;12.00;;;17.80;1.00;;;;;;5019046;28;20479;-73
2021/06/28 02:43:22;;;;;;;15.20;12.53;;;17.70;99.90;;;;;;5031042;28;20464;-74
2021/06/28 02:45:48;;;;;;;18.23;13.53;;;17.70;1.00;;;;;;5036400;28;20480;-73
2021/06/28 02:48:14;;;;;;;12.80;11.50;;;17.80;99.90;;;;;;5037737;28;20456;-73
2021/06/28 02:50:40;;;;;;;14.57;12.57;;;17.70;1.00;;;;;;5041495;28;20476;-74
2021/06/28 02:53:07;;;;;;;14.53;13.03;;;17.80;1.00;;;;;;5039814;28;20266;-74
2021/06/28 02:55:32;;;;;;;18.43;12.77;;;17.80;1.00;;;;;;5035248;28;20479;-74
2021/06/28 02:57:58;;;;;;;12.77;11.47;;;17.80;99.90;;;;;;5037544;28;20437;-74
2021/06/28 03:00:24;;;;;;;14.03;12.63;;;17.80;99.90;;;;;;5034504;28;20719;-73
2021/06/28 03:02:50;;;;;;;16.80;12.63;;;17.80;96.80;;;;;;5033100;28;20590;-73
2021/06/28 03:05:16;;;;;;;14.30;12.47;;;17.80;99.90;;;;;;5041794;28;20556;-73
2021/06/28 03:07:42;;;;;;;15.23;12.80;;;17.80;1.00;;;;;;5040277;28;21833;-73
2021/06/28 03:10:11;;;;;;;15.40;12.47;;;17.80;99.90;;;;;;5031315;28;20273;-74
2021/06/28 03:12:37;;;;;;;14.33;12.83;;;17.90;99.90;;;;;;5033669;28;20183;-74
2021/06/28 03:15:13;;;;;;;13.07;11.50;;;17.90;1.00;;;;;;5035968;28;20445;-73
2021/06/28 03:17:40;;;;;;;19.40;13.80;;;17.90;1.00;;;;;;5040710;28;20457;-73
2021/06/28 03:20:08;;;;;;;13.57;12.17;;;17.80;1.00;;;;;;5036540;28;20564;-74
2021/06/28 03:22:35;;;;;;;14.10;11.60;;;17.80;1.00;;;;;;5043427;28;21819;-73
2021/06/28 03:25:01;;;;;;;17.33;13.30;;;17.80;1.00;;;;;;5040672;28;20442;-73
2021/06/28 03:27:26;;;;;;;13.67;12.27;;;17.80;1.00;;;;;;5035486;28;20467;-74
2021/06/28 03:29:54;;;;;;;15.13;12.80;;;17.90;1.00;;;;;;5041486;28;20214;-73
2021/06/28 03:32:19;;;;;;;14.63;11.30;;;17.80;1.00;;;;;;5035086;28;20687;-74
2021/06/28 03:34:45;;;;;;;14.70;12.10;;;17.80;99.90;;;;;;5035608;28;20457;-73
2021/06/28 03:37:11;;;;;;;13.23;11.90;;;17.80;99.90;;;;;;5040781;28;20730;-73
2021/06/28 03:39:37;;;;;;;13.57;12.10;;;17.80;99.90;;;;;;5037630;28;20203;-73
2021/06/28 03:42:04;;;;;;;13.93;12.47;;;17.70;99.90;;;;;;5024171;28;20192;-73
2021/06/28 03:44:29;;;;;;;15.70;11.70;;;17.70;99.90;;;;;;5029055;28;21120;-73
2021/06/28 03:46:55;;;;;;;12.40;11.20;;;17.70;1.00;;;;;;5009993;28;20444;-73
2021/06/28 03:49:21;;;;;;;14.60;12.20;;;17.70;1.00;;;;;;5027843;28;20201;-74
2021/06/28 03:51:46;;;;;;;15.00;13.40;;;17.70;1.00;;;;;;5040164;28;20234;-73
2021/06/28 03:54:12;;;;;;;15.10;12.37;;;17.60;1.00;;;;;;5042212;28;20248;-73
2021/06/28 03:56:38;;;;;;;14.47;12.97;;;17.60;1.00;;;;;;5037244;28;20187;-73
2021/06/28 03:59:03;;;;;;;16.57;13.73;;;17.60;24.70;;;;;;5037501;28;20216;-73
2021/06/28 04:01:29;;;;;;;15.43;13.93;;;17.60;18.90;;;;;;5049587;28;20193;-73
2021/06/28 04:03:55;;;;;;;17.77;13.93;;;17.60;99.90;;;;;;5041821;28;20221;-73
2021/06/28 04:06:22;;;;;;;14.60;13.17;;;17.60;99.90;;;;;;5049870;28;20569;-73
2021/06/28 04:08:48;;;;;;;23.80;14.67;;;17.60;99.90;;;;;;5044001;28;20544;-74
2021/06/28 04:11:13;;;;;;;21.47;14.10;;;17.60;1.00;;;;;;5042130;28;21081;-74
2021/06/28 04:13:39;;;;;;;16.40;14.50;;;17.60;99.90;;;;;;5042388;28;20728;-73
2021/06/28 04:16:05;;;;;;;16.33;14.63;;;17.70;97.90;;;;;;5043126;28;20582;-73
2021/06/28 04:18:30;;;;;;;20.07;16.13;;;17.70;99.90;;;;;;5037616;28;20824;-73
2021/06/28 04:20:56;;;;;;;21.33;17.67;;;17.70;33.30;;;;;;5040899;28;20210;-73
2021/06/28 04:23:22;;;;;;;18.03;16.07;;;17.70;99.90;;;;;;5041602;28;20391;-73
2021/06/28 04:25:48;;;;;;;19.77;15.87;;;17.70;26.30;;;;;;5035969;28;20448;-73
2021/06/28 04:28:13;;;;;;;17.83;15.93;;;17.60;11.00;;;;;;5041746;28;20181;-73
2021/06/28 04:30:39;;;;;;;18.97;15.87;;;17.70;1.00;;;;;;5043599;28;20547;-73
2021/06/28 04:33:05;;;;;;;18.30;16.30;;;17.70;3.90;;;;;;5045884;28;20584;-74
2021/06/28 04:35:31;;;;;;;17.30;13.93;;;17.70;22.10;;;;;;5040032;28;20538;-73
2021/06/28 04:37:57;;;;;;;14.30;12.90;;;17.60;58.30;;;;;;5044227;28;20456;-74
2021/06/28 04:40:26;;;;;;;16.23;14.63;;;17.60;99.90;;;;;;5049830;28;20351;-73
2021/06/28 04:42:52;;;;;;;15.80;13.90;;;17.60;99.90;;;;;;5042793;28;20606;-73
2021/06/28 04:45:20;;;;;;;16.27;14.50;;;17.70;99.90;;;;;;5053898;28;20465;-73
2021/06/28 04:47:46;;;;;;;21.10;14.87;;;17.80;99.90;;;;;;5047346;28;20780;-73
2021/06/28 04:50:13;;;;;;;16.70;13.80;;;17.90;99.90;;;;;;5042618;28;20460;-73
2021/06/28 04:52:40;;;;;;;15.73;12.40;;;17.80;99.90;;;;;;5039862;28;20534;-74
2021/06/28 04:55:08;;;;;;;17.10;11.20;;;17.80;99.90;;;;;;5053615;28;20765;-73
2021/06/28 04:57:35;;;;;;;16.17;13.47;;;17.80;99.90;;;;;;5032370;28;20454;-73
2021/06/28 05:00:01;;;;;;;14.80;13.30;;;17.70;99.90;;;;;;5037184;28;21049;-73
2021/06/28 05:02:26;;;;;;;16.67;13.47;;;17.70;99.90;;;;;;5028559;28;20514;-73
2021/06/28 05:04:52;;;;;;;16.63;13.63;;;17.90;99.90;;;;;;5027834;28;20861;-73
2021/06/28 05:07:18;;;;;;;16.20;14.50;;;18.00;99.90;;;;;;5053036;28;20687;-73
2021/06/28 05:09:45;;;;;;;16.73;14.40;;;18.10;99.90;;;;;;5049037;28;20830;-73
2021/06/28 05:12:11;;;;;;;16.20;14.03;;;18.10;99.90;;;;;;5049252;28;20231;-73
2021/06/28 05:14:38;;;;;;;14.40;12.50;;;18.00;99.90;;;;;;5036205;28;21183;-73
2021/06/28 05:17:05;;;;;;;14.37;12.87;;;18.00;99.90;;;;;;5041414;28;20468;-73
2021/06/28 05:19:31;;;;;;;15.23;13.63;;;18.00;99.90;;;;;;5036615;28;20579;-73
2021/06/28 05:21:57;;;;;;;17.70;13.97;;;18.10;99.90;;;;;;5051927;28;20468;-73
2021/06/28 05:24:22;;;;;;;15.40;13.70;;;18.20;99.90;;;;;;5035770;28;20752;-73
2021/06/28 05:26:48;;;;;;;15.37;13.63;;;18.20;99.90;;;;;;5028059;28;20191;-74
2021/06/28 05:29:14;;;;;;;17.60;13.53;;;18.30;99.90;;;;;;5032268;28;20453;-73
2021/06/28 05:31:40;;;;;;;15.67;13.23;;;18.30;99.90;;;;;;5032609;28;20201;-73
2021/06/28 05:34:05;;;;;;;15.77;14.20;;;18.30;99.90;;;;;;5029900;28;20819;-73
2021/06/28 05:36:33;;;;;;;16.10;13.83;;;18.40;99.90;;;;;;5032485;28;20207;-74
2021/06/28 05:38:58;;;;;;;15.73;13.23;;;18.50;99.90;;;;;;5041637;28;20226;-74
2021/06/28 05:41:24;;;;;;;16.90;14.00;;;18.50;99.90;;;;;;5031815;28;20962;-74
2021/06/28 05:43:50;;;;;;;18.93;13.80;;;18.50;99.90;;;;;;5022120;28;20219;-74
2021/06/28 05:46:16;;;;;;;17.73;14.47;;;18.50;99.90;;;;;;5031028;28;20183;-73
2021/06/28 05:48:42;;;;;;;19.67;16.27;;;18.50;99.90;;;;;;5031456;28;20889;-73
2021/06/28 05:51:08;;;;;;;16.43;14.13;;;18.50;99.90;;;;;;5026748;28;21026;-73
2021/06/28 05:53:33;;;;;;;18.13;16.30;;;18.50;99.90;;;;;;5029129;28;20194;-73
2021/06/28 05:56:00;;;;;;;22.43;14.57;;;18.60;99.90;;;;;;5032893;28;20445;-74
2021/06/28 05:58:28;;;;;;;18.57;15.47;;;18.60;99.90;;;;;;5025625;28;20679;-73
2021/06/28 06:00:55;;;;;;;19.90;17.33;;;18.70;99.90;;;;;;5014313;28;21120;-73
2021/06/28 06:03:20;;;;;;;21.00;17.23;;;18.70;99.90;;;;;;5025787;28;20441;-73
2021/06/28 06:05:46;;;;;;;22.80;17.63;;;18.80;99.90;;;;;;5024007;28;20905;-73
2021/06/28 06:08:12;;;;;;;24.53;16.07;;;18.90;99.90;;;;;;5034913;28;20278;-73
2021/06/28 06:10:38;;;;;;;19.40;17.30;;;19.10;99.90;;;;;;5022181;28;22687;-73
2021/06/28 06:13:04;;;;;;;19.00;16.13;;;19.20;99.90;;;;;;4999778;28;21058;-73
2021/06/28 06:15:29;;;;;;;19.57;17.10;;;19.30;99.90;;;;;;5019933;28;20183;-74
2021/06/28 06:17:56;;;;;;;17.20;15.17;;;19.30;1.00;;;;;;5033792;28;20194;-74
2021/06/28 06:20:22;;;;;;;18.60;15.53;;;19.40;1.00;;;;;;5014403;28;20776;-74
2021/06/28 06:22:48;;;;;;;18.07;16.17;;;19.50;1.00;;;;;;5022784;28;20473;-73
2021/06/28 06:25:14;;;;;;;17.20;15.47;;;19.60;99.90;;;;;;5026310;28;20249;-73
2021/06/28 06:27:40;;;;;;;16.47;14.77;;;19.70;99.90;;;;;;5024371;28;20496;-74
2021/06/28 06:30:07;;;;;;;17.70;15.87;;;19.80;1.00;;;;;;5024056;28;20873;-74
2021/06/28 06:32:33;;;;;;;17.20;14.60;;;19.80;1.00;;;;;;5033724;28;20544;-73
2021/06/28 06:34:59;;;;;;;16.20;14.70;;;19.90;1.00;;;;;;5026071;28;20444;-73
2021/06/28 06:37:24;;;;;;;17.27;15.10;;;19.90;99.90;;;;;;5033001;28;20738;-73
2021/06/28 06:39:51;;;;;;;17.93;14.80;;;20.00;99.90;;;;;;5028954;28;20210;-73
2021/06/28 06:42:17;;;;;;;15.90;14.30;;;20.00;99.90;;;;;;5028701;28;20814;-74
2021/06/28 06:44:44;;;;;;;18.80;14.10;;;20.00;99.90;;;;;;5024045;28;20481;-74
2021/06/28 06:47:09;;;;;;;17.73;14.90;;;20.00;99.90;;;;;;5029746;28;20445;-73
2021/06/28 06:49:35;;;;;;;16.93;15.13;;;20.10;99.90;;;;;;5034124;28;20450;-73
2021/06/28 06:52:01;;;;;;;17.50;15.27;;;20.10;99.90;;;;;;5029734;28;20726;-73
2021/06/28 06:54:27;;;;;;;18.47;16.23;;;20.20;99.90;;;;;;5020468;28;20447;-74
2021/06/28 06:56:53;;;;;;;19.27;15.60;;;20.10;1.00;;;;;;5027302;28;20446;-73
2021/06/28 06:59:18;;;;;;;20.60;16.70;;;20.10;1.00;;;;;;5017648;28;20206;-74
2021/06/28 07:01:44;;;;;;;19.20;15.73;;;20.20;99.90;;;;;;5028497;28;20280;-74
2021/06/28 07:04:10;;;;;;;17.13;14.90;;;20.30;1.00;;;;;;5017650;28;20195;-74
2021/06/28 07:06:35;;;;;;;16.70;14.93;;;20.40;1.00;;;;;;5031750;28;20209;-74
2021/06/28 07:09:03;;;;;;;19.33;16.10;;;20.40;99.90;;;;;;5018165;28;20930;-74
2021/06/28 07:11:29;;;;;;;17.00;14.90;;;20.50;1.00;;;;;;5028305;28;20261;-74
2021/06/28 07:13:54;;;;;;;17.47;14.30;;;20.60;1.00;;;;;;5019827;28;20464;-74
2021/06/28 07:16:24;;;;;;;17.60;15.70;;;20.60;1.00;;;;;;5026023;28;20187;-74
2021/06/28 07:18:49;;;;;;;17.13;15.47;;;20.70;1.00;;;;;;5030635;28;20750;-74
2021/06/28 07:21:15;;;;;;;18.93;15.67;;;20.70;1.00;;;;;;5029818;28;20551;-74
2021/06/28 07:23:41;;;;;;;18.03;14.83;;;20.70;99.90;;;;;;5025047;28;20510;-74
2021/06/28 07:26:07;;;;;;;18.43;16.60;;;20.70;99.90;;;;;;5020469;28;20196;-74
2021/06/28 07:28:33;;;;;;;21.17;16.30;;;20.80;1.00;;;;;;5021307;28;20686;-74
2021/06/28 07:31:00;;;;;;;20.33;16.10;;;20.90;1.00;;;;;;5031289;28;20200;-74
2021/06/28 07:33:29;;;;;;;19.33;15.53;;;21.00;1.00;;;;;;5040579;28;20490;-74
2021/06/28 07:35:58;;;;;;;17.60;14.83;;;21.00;1.00;;;;;;5029089;28;20451;-74
2021/06/28 07:38:24;;;;;;;18.73;15.30;;;21.10;99.90;;;;;;5021591;28;20468;-74
2021/06/28 07:40:49;;;;;;;19.43;15.57;;;21.30;99.90;;;;;;5030842;28;20448;-74
2021/06/28 07:43:17;;;;;;;19.03;14.13;;;21.50;99.90;;;;;;5020328;28;20782;-74
2021/06/28 07:45:43;;;;;;;18.57;15.10;;;21.50;99.90;;;;;;5027552;28;20171;-74
2021/06/28 07:48:09;;;;;;;16.10;14.50;;;21.60;99.90;;;;;;5029436;28;20575;-75
2021/06/28 07:50:35;;;;;;;16.73;14.57;;;21.70;99.90;;;;;;5025918;28;20802;-74
2021/06/28 07:53:01;;;;;;;16.10;14.60;;;21.70;99.90;;;;;;5034161;28;20209;-74
2021/06/28 07:55:26;;;;;;;16.83;15.17;;;21.60;99.90;;;;;;5036403;28;20190;-74
2021/06/28 07:57:52;;;;;;;18.13;16.10;;;21.60;99.90;;;;;;5029089;28;20250;-74
2021/06/28 08:00:19;;;;;;;18.10;16.00;;;21.60;99.90;;;;;;5023483;28;20214;-75
2021/06/28 08:02:46;;;;;;;17.57;14.27;;;21.60;99.90;;;;;;5036378;28;20579;-74
2021/06/28 08:05:12;;;;;;;18.23;14.70;;;21.60;99.90;;;;;;5031957;28;20479;-74
2021/06/28 08:07:38;;;;;;;18.90;14.10;;;21.60;99.90;;;;;;5033903;28;20550;-74
2021/06/28 08:10:09;;;;;;;16.50;14.70;;;21.70;99.90;;;;;;5035823;28;20824;-74
2021/06/28 08:12:34;;;;;;;17.67;14.63;;;21.60;99.90;;;;;;5020782;28;20581;-74
2021/06/28 08:15:00;;;;;;;17.43;14.40;;;21.70;99.90;;;;;;5025741;28;20465;-74
2021/06/28 08:17:26;;;;;;;17.13;15.03;;;21.80;99.90;;;;;;5029587;28;20578;-74
2021/06/28 08:19:52;;;;;;;18.03;13.80;;;22.00;99.90;;;;;;5037640;28;20298;-74
2021/06/28 08:22:18;;;;;;;18.50;13.27;;;22.00;99.90;;;;;;5038657;28;20207;-74
2021/06/28 08:24:44;;;;;;;19.90;14.23;;;22.10;99.90;;;;;;5038666;28;20453;-74
2021/06/28 08:27:10;;;;;;;17.20;15.50;;;22.10;99.90;;;;;;5026979;28;20494;-74
2021/06/28 08:29:37;;;;;;;19.33;13.90;;;22.20;99.90;;;;;;5025921;28;20468;-74
2021/06/28 08:32:03;;;;;;;16.63;13.63;;;22.30;99.90;;;;;;5031114;28;20966;-74
2021/06/28 08:34:29;;;;;;;20.87;13.73;;;22.40;99.90;;;;;;5033650;28;20449;-74
2021/06/28 08:36:55;;;;;;;16.63;14.27;;;22.30;99.90;;;;;;5036348;28;20472;-74
2021/06/28 08:39:20;;;;;;;14.80;13.40;;;22.40;99.90;;;;;;5034634;28;20215;-74
2021/06/28 08:41:52;;;;;;;15.07;12.90;;;22.60;99.90;;;;;;5034559;28;20281;-74
2021/06/28 08:44:18;;;;;;;17.00;14.27;;;22.70;45.40;;;;;;5028250;28;20179;-74
2021/06/28 08:46:44;;;;;;;14.03;12.63;;;23.00;81.10;;;;;;5039652;28;20452;-74
2021/06/28 08:49:12;;;;;;;15.27;13.23;;;23.20;53.50;;;;;;5035885;28;21156;-74
2021/06/28 08:51:38;;;;;;;13.73;12.33;;;23.30;1.00;;;;;;5046826;28;20732;-75
2021/06/28 08:54:07;;;;;;;15.03;12.73;;;23.40;1.00;;;;;;5035737;28;20939;-75
2021/06/28 08:56:33;;;;;;;15.70;13.40;;;23.50;2.10;;;;;;5042766;28;20556;-75
2021/06/28 08:58:59;;;;;;;12.87;11.57;;;23.40;4.30;;;;;;5030332;28;20470;-75
2021/06/28 09:01:25;;;;;;;13.93;11.43;;;23.70;1.00;;;;;;5016259;28;20935;-75
2021/06/28 09:03:51;;;;;;;11.70;10.33;;;23.80;1.00;;;;;;5027954;28;20794;-75
2021/06/28 09:06:23;;;;;;;12.63;11.43;;;23.90;1.00;;;;;;5032383;28;20449;-74
2021/06/28 09:09:07;;;;;;;12.37;11.07;;;24.10;1.00;;;;;;5031328;28;20284;-75
2021/06/28 09:11:38;;;;;;;13.07;11.13;;;24.10;1.00;;;;;;5028343;28;20906;-74
2021/06/28 09:14:09;;;;;;;12.63;11.33;;;24.10;1.00;;;;;;5023336;28;21533;-75
2021/06/28 09:16:37;;;;;;;12.80;11.60;;;24.10;1.00;;;;;;5033582;28;20481;-75
2021/06/28 09:19:05;;;;;;;12.57;11.03;;;24.00;1.00;;;;;;5032154;28;20874;-74
2021/06/28 09:21:33;;;;;;;12.60;11.43;;;24.00;1.00;;;;;;5017140;28;20453;-74
2021/06/28 09:24:01;;;;;;;12.33;11.20;;;23.80;1.00;;;;;;5035378;28;20450;-74
2021/06/28 09:26:32;;;;;;;11.97;9.97;;;23.80;1.00;;;;;;5039434;28;20445;-74
2021/06/28 09:29:00;;;;;;;11.50;10.40;;;23.70;1.00;;;;;;5021733;28;20454;-74
2021/06/28 09:31:34;;;;;;;14.10;10.97;;;23.70;1.00;;;;;;5023560;28;21674;-74
2021/06/28 09:34:15;;;;;;;12.10;10.90;;;23.70;1.00;;;;;;5035968;28;21070;-74
2021/06/28 09:36:46;;;;;;;12.03;10.93;;;23.70;1.00;;;;;;5016653;28;20885;-74
2021/06/28 09:39:17;;;;;;;14.10;10.63;;;23.80;1.00;;;;;;5025777;28;20470;-74
2021/06/28 09:41:43;;;;;;;13.60;11.63;;;24.00;1.00;;;;;;5015571;28;20445;-74
2021/06/28 09:44:09;;;;;;;13.70;11.23;;;24.00;1.00;;;;;;5020322;28;20942;-74
2021/06/28 09:46:36;;;;;;;13.07;11.67;;;24.10;1.00;;;;;;5027787;28;20271;-74
2021/06/28 09:49:03;;;;;;;10.90;9.80;;;24.20;1.00;;;;;;5031639;28;20456;-74
2021/06/28 09:51:35;;;;;;;12.33;9.90;;;24.50;1.00;;;;;;5027229;28;20452;-74
2021/06/28 09:54:07;;;;;;;11.47;10.47;;;24.70;1.00;;;;;;5031128;28;20497;-74
2021/06/28 09:56:39;;;;;;;11.63;10.47;;;24.90;1.00;;;;;;5029151;28;21183;-74
2021/06/28 09:59:31;;;;;;;10.63;9.43;;;25.00;1.00;;;;;;5026637;28;20471;-75
2021/06/28 10:02:21;;;;;;;10.63;8.90;;;25.00;1.00;;;;;;5022123;28;20446;-74
2021/06/28 10:05:00;;;;;;;9.10;8.10;;;25.10;1.00;;;;;;5036555;28;21113;-74
2021/06/28 10:07:34;;;;;;;9.03;8.07;;;25.10;1.00;;;;;;5032573;28;20505;-75
2021/06/28 10:10:23;;;;;;;8.37;7.53;;;25.10;1.00;;;;;;5024570;28;20444;-75
2021/06/28 10:12:52;;;;;;;11.50;7.53;;;25.20;1.00;;;;;;5018743;28;21955;-74
2021/06/28 10:15:20;;;;;;;8.70;7.90;;;25.30;1.00;;;;;;5031754;28;20508;-74
2021/06/28 10:17:47;;;;;;;8.07;7.27;;;25.40;1.00;;;;;;5033662;28;20552;-74
2021/06/28 10:20:17;;;;;;;7.37;6.77;;;25.40;1.00;;;;;;5036385;28;21146;-74
2021/06/28 10:22:44;;;;;;;9.50;7.30;;;25.50;1.00;;;;;;5024752;28;22251;-74
2021/06/28 10:25:12;;;;;;;9.40;7.53;;;25.50;1.00;;;;;;5030344;28;20443;-75
2021/06/28 10:27:38;;;;;;;8.37;7.53;;;25.50;1.00;;;;;;5027205;28;20494;-75
2021/06/28 10:30:08;;;;;;;8.10;7.30;;;25.40;1.00;;;;;;5038699;28;20460;-75
2021/06/28 10:32:36;;;;;;;8.30;7.50;;;25.30;1.00;;;;;;5033954;28;20471;-75
2021/06/28 10:35:03;;;;;;;11.07;8.30;;;25.30;1.00;;;;;;5025254;28;20449;-75
2021/06/28 10:37:34;;;;;;;8.50;7.70;;;25.10;1.00;;;;;;5030839;28;20819;-75
2021/06/28 10:40:06;;;;;;;9.07;8.03;;;25.10;1.00;;;;;;5033429;28;20458;-75
2021/06/28 10:42:35;;;;;;;11.23;7.73;;;25.00;1.00;;;;;;5018532;28;20893;-74
2021/06/28 10:45:01;;;;;;;8.80;8.00;;;25.00;1.00;;;;;;5026036;28;20778;-75
2021/06/28 10:47:28;;;;;;;8.90;7.93;;;25.00;1.00;;;;;;5034988;28;20792;-75
2021/06/28 10:49:55;;;;;;;9.17;8.23;;;25.00;1.00;;;;;;5023903;28;20444;-75
2021/06/28 10:52:39;;;;;;;9.10;8.23;;;25.00;1.00;;;;;;5032132;28;20806;-75
2021/06/28 10:55:16;;;;;;;9.13;8.17;;;24.90;1.00;;;;;;5009527;28;21002;-75
2021/06/28 10:57:42;;;;;;;7.37;6.67;;;24.80;1.00;;;;;;5016432;28;20487;-75
2021/06/28 11:00:09;;;;;;;7.40;6.70;;;24.70;1.00;;;;;;5019431;28;21830;-75
2021/06/28 11:02:39;;;;;;;8.03;7.20;;;24.60;1.00;;;;;;5034591;28;20503;-75
2021/06/28 11:05:09;;;;;;;8.53;7.60;;;24.60;1.00;;;;;;5013919;28;20823;-75
2021/06/28 11:07:44;;;;;;;11.43;7.90;;;24.60;1.00;;;;;;5025993;28;20510;-75
2021/06/28 11:10:39;;;;;;;8.73;7.47;;;24.60;1.00;;;;;;5015825;28;20454;-75
2021/06/28 11:13:39;;;;;;;8.40;7.50;;;24.50;1.00;;;;;;5025114;28;20452;-75
2021/06/28 11:16:33;;;;;;;9.00;7.57;;;24.40;1.00;;;;;;5030562;28;20446;-75
2021/06/28 11:19:00;;;;;;;8.50;7.60;;;24.50;1.00;;;;;;5033046;28;20518;-75
2021/06/28 11:21:39;;;;;;;8.47;7.77;;;24.60;1.00;;;;;;5031464;28;20450;-75
2021/06/28 11:24:05;;;;;;;9.33;7.60;;;24.60;1.00;;;;;;5037729;28;20832;-75
2021/06/28 11:26:35;;;;;;;9.77;8.50;;;24.70;1.00;;;;;;5037764;28;20444;-75
2021/06/28 11:29:01;;;;;;;9.43;7.90;;;24.70;1.00;;;;;;5019291;28;20479;-74
2021/06/28 11:31:29;;;;;;;8.60;7.83;;;24.70;1.00;;;;;;5022677;28;20453;-74
2021/06/28 11:33:56;;;;;;;9.93;8.93;;;24.70;1.00;;;;;;5040535;28;20457;-74
2021/06/28 11:36:31;;;;;;;24.67;10.27;;;24.70;1.00;;;;;;5036612;28;20449;-74
2021/06/28 11:39:00;;;;;;;10.93;9.80;;;24.70;1.00;;;;;;5031408;28;21200;-74
2021/06/28 11:41:28;;;;;;;10.70;9.60;;;24.60;1.00;;;;;;5034293;28;20437;-75
2021/06/28 11:43:55;;;;;;;10.77;9.67;;;24.60;1.00;;;;;;5031170;28;20469;-74
2021/06/28 11:46:26;;;;;;;10.60;9.43;;;24.50;1.00;;;;;;5029036;28;20449;-74
2021/06/28 11:49:02;;;;;;;11.50;10.20;;;24.50;1.00;;;;;;5036231;28;21035;-75
2021/06/28 11:51:30;;;;;;;12.87;9.80;;;24.40;1.00;;;;;;5036634;28;20763;-74
2021/06/28 11:53:56;;;;;;;13.57;10.07;;;24.40;1.00;;;;;;5030885;28;20457;-75
2021/06/28 11:56:31;;;;;;;10.70;9.63;;;24.30;1.00;;;;;;5023244;28;20823;-75
2021/06/28 11:59:17;;;;;;;12.17;11.00;;;24.20;1.00;;;;;;5028126;28;20210;-75
2021/06/28 12:01:48;;;;;;;11.87;10.77;;;24.10;1.00;;;;;;5032274;28;20859;-75
2021/06/28 12:04:15;;;;;;;13.27;11.97;;;23.90;1.00;;;;;;5034384;28;20803;-74
2021/06/28 12:06:42;;;;;;;13.07;10.30;;;23.80;1.00;;;;;;5039905;28;21371;-76
2021/06/28 12:09:14;;;;;;;12.80;11.50;;;23.70;1.00;;;;;;5026344;28;20464;-75
2021/06/28 12:11:58;;;;;;;13.10;11.90;;;23.60;1.00;;;;;;5037620;28;21251;-75
2021/06/28 12:14:52;;;;;;;12.73;11.60;;;23.60;1.00;;;;;;5030939;28;20488;-75
2021/06/28 12:17:20;;;;;;;13.27;11.87;;;23.70;1.00;;;;;;5036391;28;20453;-75
2021/06/28 12:20:05;;;;;;;15.53;12.57;;;23.80;1.00;;;;;;5038636;28;20550;-75
2021/06/28 12:22:34;;;;;;;13.20;11.60;;;24.20;1.00;;;;;;5031148;28;20947;-75
2021/06/28 12:25:10;;;;;;;12.90;11.70;;;24.80;1.00;;;;;;5033080;28;20483;-75
2021/06/28 12:27:37;;;;;;;12.17;10.87;;;25.20;1.00;;;;;;5033310;28;20495;-76
2021/06/28 12:30:08;;;;;;;11.93;10.63;;;25.50;1.00;;;;;;5027776;28;20476;-75
2021/06/28 12:32:36;;;;;;;15.70;10.10;;;25.80;1.00;;;;;;5039905;28;20480;-75
2021/06/28 12:35:03;;;;;;;11.77;10.77;;;25.90;1.00;;;;;;5031847;28;20551;-75
2021/06/28 12:37:47;;;;;;;12.13;10.13;;;26.10;1.00;;;;;;5037757;28;20472;-76
2021/06/28 12:40:20;;;;;;;11.30;10.30;;;26.30;1.00;;;;;;5034598;28;20457;-76